Time;durP1;ratioP1;P1;durP2;ratioP2;P2;SDS_P1;SDS_P2;PMS_P1;PMS_P2;Temp;Humidity;BMP_temperature;BMP_pressure;BME280_temperature;BME280_humidity;BME280_pressure;Samples;Min_cycle;Max_cycle;Signal;HPM_P1;HPM_P2
2022/05/31 00:01:11;;;;;;;;;;;;;;;;;;5036406;28;19913;-79
2022/05/31 00:03:37;;;;;;;;;;;;;;;;;;5036138;28;19913;-79
2022/05/31 00:06:03;;;;;;;;;;;;;;;;;;5040113;28;20420;-79
2022/05/31 00:08:29;;;;;;;;;;;;;;;;;;5039041;28;19916;-78
2022/05/31 00:10:55;;;;;;;;;;;;;;;;;;5039834;28;19924;-77
2022/05/31 00:13:21;;;;;;;;;;;;;;;;;;5037368;28;19916;-77
2022/05/31 00:15:47;;;;;;;;;;;;;;;;;;5037007;28;19912;-77
2022/05/31 00:18:13;;;;;;;;;;;;;;;;;;5038059;28;19913;-77
2022/05/31 00:20:39;;;;;;;;;;;;;;;;;;5030488;28;19923;-77
2022/05/31 00:23:05;;;;;;;;;;;;;;;;;;5032822;28;19924;-80
2022/05/31 00:25:31;;;;;;;;;;;;;;;;;;5036044;28;20038;-81
2022/05/31 00:27:57;;;;;;;;;;;;;;;;;;5039533;28;19935;-81
2022/05/31 00:30:22;;;;;;;;;;;;;;;;;;5032864;28;19931;-81
2022/05/31 00:32:48;;;;;;;;;;;;;;;;;;5034813;28;19917;-81
2022/05/31 00:35:14;;;;;;;;;;;;;;;;;;5026760;28;20347;-81
2022/05/31 00:37:40;;;;;;;;;;;;;;;;;;5061667;28;20459;-81
2022/05/31 00:40:08;;;;;;;;;;;;;;;;;;5037445;28;19936;-80
2022/05/31 00:42:33;;;;;;;;;;;;;;;;;;5034209;28;19920;-80
2022/05/31 00:45:00;;;;;;;;;;;;;;;;;;5039674;28;19912;-80
2022/05/31 00:47:25;;;;;;;;;;;;;;;;;;5035582;28;19920;-81
2022/05/31 00:49:51;;;;;;;;;;;;;;;;;;5033503;28;19927;-80
2022/05/31 00:52:17;;;;;;;;;;;;;;;;;;5036068;28;19913;-79
2022/05/31 00:54:43;;;;;;;;;;;;;;;;;;5036431;28;19959;-80
2022/05/31 00:57:09;;;;;;;;;;;;;;;;;;5033926;28;20714;-79
2022/05/31 00:59:35;;;;;;;;;;;;;;;;;;5037488;28;20041;-80
2022/05/31 01:02:01;;;;;;;;;;;;;;;;;;5033163;28;20381;-81
2022/05/31 01:04:27;;;;;;;;;;;;;;;;;;5031196;28;19917;-81
2022/05/31 01:06:53;;;;;;;;;;;;;;;;;;5035212;28;20011;-81
2022/05/31 01:09:19;;;;;;;;;;;;;;;;;;5036852;28;20297;-81
2022/05/31 01:11:46;;;;;;;;;;;;;;;;;;5037650;28;19912;-81
2022/05/31 01:14:13;;;;;;;;;;;;;;;;;;5036473;28;20397;-82
2022/05/31 01:16:39;;;;;;;;;;;;;;;;;;5030512;28;19908;-81
2022/05/31 01:19:55;;;;;;;;;;;;;;;;;;5031632;28;19935;-81
2022/05/31 01:21:51;;;;;;;;;;;;;;;;;;5035523;28;19920;-82
2022/05/31 01:24:17;;;;;;;;;;;;;;;;;;5037347;28;19913;-82
2022/05/31 01:26:43;;;;;;;;;;;;;;;;;;5038163;28;19955;-81
2022/05/31 01:29:09;;;;;;;;;;;;;;;;;;5035285;28;19925;-80
2022/05/31 01:31:35;;;;;;;;;;;;;;;;;;5033742;28;19920;-82
2022/05/31 01:34:01;;;;;;;;;;;;;;;;;;5034952;28;19984;-81
2022/05/31 01:36:26;;;;;;;;;;;;;;;;;;5031452;28;19919;-81
2022/05/31 01:38:52;;;;;;;;;;;;;;;;;;5037051;28;19920;-80
2022/05/31 01:41:19;;;;;;;;;;;;;;;;;;5036031;28;20405;-81
2022/05/31 01:43:45;;;;;;;;;;;;;;;;;;5038596;28;20023;-80
2022/05/31 01:46:11;;;;;;;;;;;;;;;;;;5036494;28;20027;-79
2022/05/31 01:48:37;;;;;;;;;;;;;;;;;;5036553;28;19917;-78
2022/05/31 01:51:03;;;;;;;;;;;;;;;;;;5035999;28;20512;-78
2022/05/31 01:53:28;;;;;;;;;;;;;;;;;;5035938;28;20007;-78
2022/05/31 01:55:54;;;;;;;;;;;;;;;;;;5034902;28;19917;-78
2022/05/31 01:58:20;;;;;;;;;;;;;;;;;;5034257;28;19940;-78
2022/05/31 02:00:46;;;;;;;;;;;;;;;;;;5035019;28;19959;-79
2022/05/31 02:03:13;;;;;;;;;;;;;;;;;;5035709;28;19917;-78
2022/05/31 02:05:38;;;;;;;;;;;;;;;;;;5036868;28;19931;-80
2022/05/31 02:08:04;;;;;;;;;;;;;;;;;;5027290;28;19916;-81
2022/05/31 02:10:32;;;;;;;;;;;;;;;;;;5035924;28;19924;-81
2022/05/31 02:12:58;;;;;;;;;;;;;;;;;;5035808;28;19923;-81
2022/05/31 02:15:24;;;;;;;;;;;;;;;;;;5034993;28;19913;-79
2022/05/31 02:17:49;;;;;;;;;;;;;;;;;;5035740;28;19924;-80
2022/05/31 02:20:15;;;;;;;;;;;;;;;;;;5036105;28;19912;-82
2022/05/31 02:22:41;;;;;;;;;;;;;;;;;;5035679;28;19912;-80
2022/05/31 02:25:07;;;;;;;;;;;;;;;;;;5034405;28;19976;-80
2022/05/31 02:27:33;;;;;;;;;;;;;;;;;;5038549;28;19986;-81
2022/05/31 02:29:59;;;;;;;;;;;;;;;;;;5029503;28;19924;-81
2022/05/31 02:32:25;;;;;;;;;;;;;;;;;;5036854;28;19917;-79
2022/05/31 02:34:51;;;;;;;;;;;;;;;;;;5036012;28;20015;-79
2022/05/31 02:37:17;;;;;;;;;;;;;;;;;;5035550;28;20309;-81
2022/05/31 02:39:43;;;;;;;;;;;;;;;;;;5035470;28;19916;-81
2022/05/31 02:42:09;;;;;;;;;;;;;;;;;;5037716;28;19921;-80
2022/05/31 02:44:35;;;;;;;;;;;;;;;;;;5034389;28;19960;-80
2022/05/31 02:47:01;;;;;;;;;;;;;;;;;;5041927;28;20417;-80
2022/05/31 02:49:27;;;;;;;;;;;;;;;;;;5030553;28;20032;-80
2022/05/31 02:51:53;;;;;;;;;;;;;;;;;;5036056;28;19913;-80
2022/05/31 02:54:19;;;;;;;;;;;;;;;;;;5065353;28;20018;-80
2022/05/31 02:56:48;;;;;;;;;;;;;;;;;;5033902;28;20024;-79
2022/05/31 02:59:14;;;;;;;;;;;;;;;;;;5036790;28;20488;-79
2022/05/31 03:01:40;;;;;;;;;;;;;;;;;;5034851;28;19912;-79
2022/05/31 03:04:05;;;;;;;;;;;;;;;;;;5036733;28;19916;-81
2022/05/31 03:06:31;;;;;;;;;;;;;;;;;;5039002;28;19925;-83
2022/05/31 03:08:58;;;;;;;;;;;;;;;;;;5034949;28;20664;-83
2022/05/31 03:11:24;;;;;;;;;;;;;;;;;;5036131;28;19919;-84
2022/05/31 03:13:49;;;;;;;;;;;;;;;;;;5040252;28;20655;-83
2022/05/31 03:16:15;;;;;;;;;;;;;;;;;;5032826;28;19962;-84
2022/05/31 03:18:41;;;;;;;;;;;;;;;;;;5060447;28;19919;-84
2022/05/31 03:21:07;;;;;;;;;;;;;;;;;;5035288;28;20437;-84
2022/05/31 03:23:33;;;;;;;;;;;;;;;;;;5039746;28;19912;-84
2022/05/31 03:25:59;;;;;;;;;;;;;;;;;;5041180;28;20007;-80
2022/05/31 03:28:25;;;;;;;;;;;;;;;;;;5035314;28;19922;-80
2022/05/31 03:30:51;;;;;;;;;;;;;;;;;;5039381;28;19920;-81
2022/05/31 03:33:17;;;;;;;;;;;;;;;;;;5033911;28;20340;-81
2022/05/31 03:35:43;;;;;;;;;;;;;;;;;;5033036;28;20381;-82
2022/05/31 03:38:09;;;;;;;;;;;;;;;;;;5038197;28;20212;-81
2022/05/31 03:43:19;;;;;;;;;;;;;;;;;;5040379;28;19920;-80
2022/05/31 03:45:45;;;;;;;;;;;;;;;;;;5036119;28;19917;-81
2022/05/31 03:48:11;;;;;;;;;;;;;;;;;;5037692;28;19921;-81
2022/05/31 03:50:40;;;;;;;;;;;;;;;;;;5040144;28;20319;-80
2022/05/31 03:53:06;;;;;;;;;;;;;;;;;;5039307;28;19920;-81
2022/05/31 03:55:32;;;;;;;;;;;;;;;;;;5031449;28;19912;-81
2022/05/31 03:57:58;;;;;;;;;;;;;;;;;;5039219;28;19919;-78
2022/05/31 04:00:24;;;;;;;;;;;;;;;;;;5040249;28;19912;-77
2022/05/31 04:02:50;;;;;;;;;;;;;;;;;;5039162;28;20815;-79
2022/05/31 04:05:15;;;;;;;;;;;;;;;;;;5034135;28;19920;-78
2022/05/31 04:07:41;;;;;;;;;;;;;;;;;;5035762;28;19924;-79
2022/05/31 04:10:07;;;;;;;;;;;;;;;;;;5033237;28;19912;-80
2022/05/31 04:12:34;;;;;;;;;;;;;;;;;;5037606;28;19921;-80
2022/05/31 04:15:00;;;;;;;;;;;;;;;;;;5036697;28;19940;-80
2022/05/31 04:17:25;;;;;;;;;;;;;;;;;;5035332;28;19917;-80
2022/05/31 04:19:51;;;;;;;;;;;;;;;;;;5038978;28;19990;-79
2022/05/31 04:22:17;;;;;;;;;;;;;;;;;;5031445;28;20673;-79
2022/05/31 04:24:43;;;;;;;;;;;;;;;;;;5035607;28;19948;-79
2022/05/31 04:27:09;;;;;;;;;;;;;;;;;;5036714;28;19956;-81
2022/05/31 04:29:35;;;;;;;;;;;;;;;;;;5038383;28;19932;-81
2022/05/31 04:32:01;;;;;;;;;;;;;;;;;;5037366;28;20376;-81
2022/05/31 04:34:27;;;;;;;;;;;;;;;;;;5035798;28;19919;-80
2022/05/31 04:36:53;;;;;;;;;;;;;;;;;;5037956;28;19930;-81
2022/05/31 04:39:19;;;;;;;;;;;;;;;;;;5035155;28;19986;-81
2022/05/31 04:41:45;;;;;;;;;;;;;;;;;;5028479;28;19917;-79
2022/05/31 04:44:11;;;;;;;;;;;;;;;;;;5036648;28;19956;-79
2022/05/31 04:46:37;;;;;;;;;;;;;;;;;;5040241;28;20533;-87
2022/05/31 04:49:03;;;;;;;;;;;;;;;;;;5035965;28;19912;-80
2022/05/31 04:51:29;;;;;;;;;;;;;;;;;;5036708;28;19913;-81
2022/05/31 04:53:55;;;;;;;;;;;;;;;;;;5041371;28;19913;-81
2022/05/31 04:56:20;;;;;;;;;;;;;;;;;;5030944;28;20583;-81
2022/05/31 04:58:46;;;;;;;;;;;;;;;;;;5036751;28;20365;-82
2022/05/31 05:01:12;;;;;;;;;;;;;;;;;;5036764;28;20043;-82
2022/05/31 05:03:40;;;;;;;;;;;;;;;;;;5038855;28;19913;-80
2022/05/31 05:06:06;;;;;;;;;;;;;;;;;;5034629;28;19921;-80
2022/05/31 05:08:32;;;;;;;;;;;;;;;;;;5029893;28;19923;-83
2022/05/31 05:10:58;;;;;;;;;;;;;;;;;;5040911;28;19921;-83
2022/05/31 05:13:24;;;;;;;;;;;;;;;;;;5039825;28;19917;-88
2022/05/31 05:15:55;;;;;;;;;;;;;;;;;;5039271;28;19944;-83
2022/05/31 05:18:21;;;;;;;;;;;;;;;;;;5040209;28;19924;-82
2022/05/31 05:20:47;;;;;;;;;;;;;;;;;;5041717;28;19912;-90
2022/05/31 05:23:13;;;;;;;;;;;;;;;;;;5040923;28;19934;-88
2022/05/31 05:25:39;;;;;;;;;;;;;;;;;;5034564;28;19913;-86
2022/05/31 05:30:38;;;;;;;;;;;;;;;;;;5038157;28;19966;-85
2022/05/31 05:30:51;;;;;;;;;;;;;;;;;;5038631;28;19928;-85
2022/05/31 05:33:17;;;;;;;;;;;;;;;;;;5038560;28;20285;-85
2022/05/31 05:35:42;;;;;;;;;;;;;;;;;;5038180;28;19928;-85
2022/05/31 05:38:09;;;;;;;;;;;;;;;;;;5036870;28;19913;-87
2022/05/31 05:40:35;;;;;;;;;;;;;;;;;;5034688;28;20386;-83
2022/05/31 05:43:00;;;;;;;;;;;;;;;;;;5039233;28;19920;-83
2022/05/31 05:45:26;;;;;;;;;;;;;;;;;;5038596;28;19913;-83
2022/05/31 05:47:52;;;;;;;;;;;;;;;;;;5036052;28;19982;-83
2022/05/31 05:50:18;;;;;;;;;;;;;;;;;;5038160;28;20382;-96
2022/05/31 05:52:44;;;;;;;;;;;;;;;;;;5035600;28;19963;-95
2022/05/31 05:55:11;;;;;;;;;;;;;;;;;;5039370;28;19913;-96
2022/05/31 05:57:37;;;;;;;;;;;;;;;;;;5043370;28;19913;-96
2022/05/31 06:00:03;;;;;;;;;;;;;;;;;;5044324;28;19912;-95
2022/05/31 06:02:29;;;;;;;;;;;;;;;;;;5047856;28;19912;-89
2022/05/31 06:04:55;;;;;;;;;;;;;;;;;;5062058;28;20420;-85
2022/05/31 06:07:21;;;;;;;;;;;;;;;;;;5033912;28;19921;-85
2022/05/31 06:09:47;;;;;;;;;;;;;;;;;;5036183;28;20457;-87
2022/05/31 06:12:13;;;;;;;;;;;;;;;;;;5023433;28;19956;-85
2022/05/31 06:14:38;;;;;;;;;;;;;;;;;;5034455;28;19909;-86
2022/05/31 06:17:04;;;;;;;;;;;;;;;;;;5031551;28;20639;-85
2022/05/31 06:19:30;;;;;;;;;;;;;;;;;;5026230;28;19916;-85
2022/05/31 06:21:56;;;;;;;;;;;;;;;;;;5037730;28;19912;-86
2022/05/31 06:24:23;;;;;;;;;;;;;;;;;;5034402;28;19913;-85
2022/05/31 06:26:49;;;;;;;;;;;;;;;;;;5042805;28;20422;-78
2022/05/31 06:29:15;;;;;;;;;;;;;;;;;;5037951;28;19931;-78
2022/05/31 06:31:41;;;;;;;;;;;;;;;;;;5038317;28;19927;-78
2022/05/31 06:34:07;;;;;;;;;;;;;;;;;;5039585;28;19913;-83
2022/05/31 06:36:33;;;;;;;;;;;;;;;;;;5040014;28;19913;-83
2022/05/31 06:38:59;;;;;;;;;;;;;;;;;;5039201;28;20401;-83
2022/05/31 06:41:25;;;;;;;;;;;;;;;;;;5040607;28;19912;-83
2022/05/31 06:43:51;;;;;;;;;;;;;;;;;;5037360;28;19909;-83
2022/05/31 06:46:17;;;;;;;;;;;;;;;;;;5039002;28;19983;-82
2022/05/31 06:48:43;;;;;;;;;;;;;;;;;;5036895;28;20429;-83
2022/05/31 06:51:08;;;;;;;;;;;;;;;;;;5042846;28;19909;-84
2022/05/31 06:59:04;;;;;;;;;;;;;;;;;;5035020;28;20075;-83
2022/05/31 07:01:37;;;;;;;;;;;;;;;;;;5038872;28;20015;-79
2022/05/31 07:04:03;;;;;;;;;;;;;;;;;;5030994;28;19935;-80
2022/05/31 07:06:28;;;;;;;;;;;;;;;;;;5036743;28;19920;-80
2022/05/31 07:08:54;;;;;;;;;;;;;;;;;;5038485;28;19913;-81
2022/05/31 07:11:20;;;;;;;;;;;;;;;;;;5037644;28;20006;-80
2022/05/31 07:13:46;;;;;;;;;;;;;;;;;;5036652;28;19944;-80
2022/05/31 07:16:12;;;;;;;;;;;;;;;;;;5039981;28;20289;-79
2022/05/31 07:18:38;;;;;;;;;;;;;;;;;;5038874;28;20466;-80
2022/05/31 07:21:04;;;;;;;;;;;;;;;;;;5041038;28;19915;-81
2022/05/31 07:23:30;;;;;;;;;;;;;;;;;;5037649;28;19912;-81
2022/05/31 07:25:57;;;;;;;;;;;;;;;;;;5034259;28;19920;-83
2022/05/31 07:28:23;;;;;;;;;;;;;;;;;;5037336;28;19921;-81
2022/05/31 07:30:49;;;;;;;;;;;;;;;;;;5039192;28;19916;-83
2022/05/31 07:33:16;;;;;;;;;;;;;;;;;;5036502;28;20003;-82
2022/05/31 07:35:42;;;;;;;;;;;;;;;;;;5038958;28;20109;-83
2022/05/31 07:38:07;;;;;;;;;;;;;;;;;;5038738;28;20675;-83
2022/05/31 07:40:34;;;;;;;;;;;;;;;;;;5036592;28;19920;-83
2022/05/31 07:43:00;;;;;;;;;;;;;;;;;;5042427;28;19912;-80
2022/05/31 07:45:26;;;;;;;;;;;;;;;;;;5034986;28;20309;-81
2022/05/31 07:47:52;;;;;;;;;;;;;;;;;;5039679;28;19921;-81
2022/05/31 07:50:18;;;;;;;;;;;;;;;;;;5035474;28;19920;-81
2022/05/31 07:52:44;;;;;;;;;;;;;;;;;;5036327;28;19931;-82
2022/05/31 07:55:10;;;;;;;;;;;;;;;;;;5036546;28;20661;-82
2022/05/31 08:00:20;;;;;;;;;;;;;;;;;;5036681;28;20523;-80
2022/05/31 08:02:46;;;;;;;;;;;;;;;;;;5042838;28;19913;-89
2022/05/31 08:05:12;;;;;;;;;;;;;;;;;;5038559;28;19913;-89
2022/05/31 08:07:39;;;;;;;;;;;;;;;;;;5035387;28;19921;-90
2022/05/31 08:10:05;;;;;;;;;;;;;;;;;;5041863;28;19913;-89
2022/05/31 08:12:30;;;;;;;;;;;;;;;;;;5038661;28;19927;-89
2022/05/31 08:14:56;;;;;;;;;;;;;;;;;;5041069;28;20424;-89
2022/05/31 08:17:22;;;;;;;;;;;;;;;;;;5039491;28;20020;-89
2022/05/31 08:19:48;;;;;;;;;;;;;;;;;;5038991;28;19919;-89
2022/05/31 08:22:14;;;;;;;;;;;;;;;;;;5040704;28;20455;-89
2022/05/31 08:24:40;;;;;;;;;;;;;;;;;;5036297;28;19920;-88
2022/05/31 08:27:06;;;;;;;;;;;;;;;;;;5036081;28;19917;-89
2022/05/31 08:29:32;;;;;;;;;;;;;;;;;;5070504;28;19984;-88
2022/05/31 08:31:58;;;;;;;;;;;;;;;;;;5032544;28;19912;-88
2022/05/31 08:34:24;;;;;;;;;;;;;;;;;;5037364;28;19920;-89
2022/05/31 08:36:50;;;;;;;;;;;;;;;;;;5037480;28;20345;-88
2022/05/31 08:39:16;;;;;;;;;;;;;;;;;;5041788;28;20015;-89
2022/05/31 08:41:42;;;;;;;;;;;;;;;;;;5038039;28;19934;-86
2022/05/31 08:44:08;;;;;;;;;;;;;;;;;;5037874;28;19912;-86
2022/05/31 08:46:34;;;;;;;;;;;;;;;;;;5035096;28;19919;-87
2022/05/31 08:49:00;;;;;;;;;;;;;;;;;;5039768;28;19948;-86
2022/05/31 08:56:59;;;;;;;;;;;;;;;;;;5040185;28;19939;-85
2022/05/31 08:59:24;;;;;;;;;;;;;;;;;;5036053;28;19912;-87
2022/05/31 09:01:50;;;;;;;;;;;;;;;;;;5034369;28;19909;-85
2022/05/31 09:04:16;;;;;;;;;;;;;;;;;;5037564;28;20382;-87
2022/05/31 09:06:42;;;;;;;;;;;;;;;;;;5039741;28;20314;-86
2022/05/31 09:09:08;;;;;;;;;;;;;;;;;;5035599;28;19920;-87
2022/05/31 09:11:34;;;;;;;;;;;;;;;;;;5035897;28;19958;-87
2022/05/31 09:14:00;;;;;;;;;;;;;;;;;;5034042;28;19908;-87
2022/05/31 09:16:26;;;;;;;;;;;;;;;;;;5035448;28;20354;-87
2022/05/31 09:18:52;;;;;;;;;;;;;;;;;;5037948;28;19913;-87
2022/05/31 09:21:18;;;;;;;;;;;;;;;;;;5033962;28;19979;-88
2022/05/31 09:23:45;;;;;;;;;;;;;;;;;;5035207;28;19916;-88
2022/05/31 09:26:11;;;;;;;;;;;;;;;;;;5036958;28;20385;-87
2022/05/31 09:28:37;;;;;;;;;;;;;;;;;;5034216;28;20009;-88
2022/05/31 09:31:03;;;;;;;;;;;;;;;;;;5036455;28;20700;-87
2022/05/31 09:33:29;;;;;;;;;;;;;;;;;;5039161;28;19923;-88
2022/05/31 09:35:55;;;;;;;;;;;;;;;;;;5036114;28;19920;-88
2022/05/31 09:38:21;;;;;;;;;;;;;;;;;;5043251;28;20012;-87
2022/05/31 09:40:47;;;;;;;;;;;;;;;;;;5029479;28;20031;-87
2022/05/31 09:43:13;;;;;;;;;;;;;;;;;;5037350;28;20403;-88
2022/05/31 09:45:39;;;;;;;;;;;;;;;;;;5039231;28;20613;-87
2022/05/31 09:48:05;;;;;;;;;;;;;;;;;;5036312;28;20003;-87
2022/05/31 09:50:31;;;;;;;;;;;;;;;;;;5038085;28;19912;-88
2022/05/31 09:52:57;;;;;;;;;;;;;;;;;;5033715;28;19947;-88
2022/05/31 09:58:08;;;;;;;;;;;;;;;;;;5032207;28;19919;-87
2022/05/31 10:00:34;;;;;;;;;;;;;;;;;;5039706;28;19948;-87
2022/05/31 10:03:00;;;;;;;;;;;;;;;;;;5040574;28;19974;-88
2022/05/31 10:05:26;;;;;;;;;;;;;;;;;;5038302;28;19916;-87
2022/05/31 10:07:52;;;;;;;;;;;;;;;;;;5037967;28;20892;-87
2022/05/31 10:10:18;;;;;;;;;;;;;;;;;;5040567;28;19948;-88
2022/05/31 10:12:44;;;;;;;;;;;;;;;;;;5040303;28;20744;-88
2022/05/31 10:15:10;;;;;;;;;;;;;;;;;;5039196;28;20417;-87
2022/05/31 10:17:37;;;;;;;;;;;;;;;;;;5042268;28;19912;-87
2022/05/31 10:20:03;;;;;;;;;;;;;;;;;;5039061;28;20016;-87
2022/05/31 10:22:29;;;;;;;;;;;;;;;;;;5040061;28;19913;-88
2022/05/31 10:24:55;;;;;;;;;;;;;;;;;;5042803;28;19913;-89
2022/05/31 10:27:20;;;;;;;;;;;;;;;;;;5036003;28;20405;-88
2022/05/31 10:29:46;;;;;;;;;;;;;;;;;;5040722;28;19967;-87
2022/05/31 10:32:12;;;;;;;;;;;;;;;;;;5037693;28;19992;-88
2022/05/31 10:34:40;;;;;;;;;;;;;;;;;;5040256;28;19920;-88
2022/05/31 10:37:07;;;;;;;;;;;;;;;;;;5041779;28;19913;-88
2022/05/31 10:39:34;;;;;;;;;;;;;;;;;;5040401;28;19963;-92
2022/05/31 10:42:00;;;;;;;;;;;;;;;;;;5035549;28;19936;-80
2022/05/31 10:44:26;;;;;;;;;;;;;;;;;;5036085;28;20385;-81
2022/05/31 10:46:52;;;;;;;;;;;;;;;;;;5032584;28;19993;-82
2022/05/31 10:49:18;;;;;;;;;;;;;;;;;;5036655;28;20004;-81
2022/05/31 10:51:44;;;;;;;;;;;;;;;;;;5038946;28;19947;-81
2022/05/31 10:54:10;;;;;;;;;;;;;;;;;;5042401;28;19909;-82
2022/05/31 10:56:36;;;;;;;;;;;;;;;;;;5038045;28;19936;-82
2022/05/31 10:59:02;;;;;;;;;;;;;;;;;;5030806;28;19938;-82
2022/05/31 11:01:27;;;;;;;;;;;;;;;;;;5038584;28;19913;-82
2022/05/31 11:03:55;;;;;;;;;;;;;;;;;;5038045;28;19955;-81
2022/05/31 11:06:21;;;;;;;;;;;;;;;;;;5036250;28;19928;-82
2022/05/31 11:11:33;;;;;;;;;;;;;;;;;;5040737;28;19974;-79
2022/05/31 11:13:59;;;;;;;;;;;;;;;;;;5034199;28;20580;-82
2022/05/31 11:16:25;;;;;;;;;;;;;;;;;;5037071;28;19913;-83
2022/05/31 11:18:51;;;;;;;;;;;;;;;;;;5041114;28;20471;-83
2022/05/31 11:21:17;;;;;;;;;;;;;;;;;;5033373;28;19917;-84
2022/05/31 11:23:44;;;;;;;;;;;;;;;;;;5037477;28;19916;-84
2022/05/31 11:26:10;;;;;;;;;;;;;;;;;;5036539;28;20409;-83
2022/05/31 11:28:36;;;;;;;;;;;;;;;;;;5036655;28;19972;-83
2022/05/31 11:31:02;;;;;;;;;;;;;;;;;;5032506;28;19917;-83
2022/05/31 11:33:28;;;;;;;;;;;;;;;;;;5041631;28;19935;-83
2022/05/31 11:35:54;;;;;;;;;;;;;;;;;;5035370;28;19908;-83
2022/05/31 11:38:20;;;;;;;;;;;;;;;;;;5040359;28;20331;-84
2022/05/31 11:40:46;;;;;;;;;;;;;;;;;;5036986;28;20223;-84
2022/05/31 11:43:12;;;;;;;;;;;;;;;;;;5039412;28;19943;-84
2022/05/31 11:45:38;;;;;;;;;;;;;;;;;;5037983;28;19959;-84
2022/05/31 11:48:04;;;;;;;;;;;;;;;;;;5037031;28;19917;-84
2022/05/31 11:50:30;;;;;;;;;;;;;;;;;;5036012;28;20472;-84
2022/05/31 11:52:56;;;;;;;;;;;;;;;;;;5041345;28;19923;-84
2022/05/31 11:55:28;;;;;;;;;;;;;;;;;;5037365;28;19923;-83
2022/05/31 11:57:54;;;;;;;;;;;;;;;;;;5038863;28;19913;-83
2022/05/31 12:00:20;;;;;;;;;;;;;;;;;;5041748;28;19919;-83
2022/05/31 12:02:46;;;;;;;;;;;;;;;;;;5030608;28;20080;-83
2022/05/31 12:05:12;;;;;;;;;;;;;;;;;;5046076;28;19917;-84
2022/05/31 12:07:38;;;;;;;;;;;;;;;;;;5031544;28;20392;-83
2022/05/31 12:10:04;;;;;;;;;;;;;;;;;;5036876;28;19952;-83
2022/05/31 12:12:33;;;;;;;;;;;;;;;;;;5041196;28;19913;-84
2022/05/31 12:14:59;;;;;;;;;;;;;;;;;;5038529;28;19904;-83
2022/05/31 12:17:25;;;;;;;;;;;;;;;;;;5036409;28;19915;-83
2022/05/31 12:19:50;;;;;;;;;;;;;;;;;;5034078;28;20011;-83
2022/05/31 12:22:17;;;;;;;;;;;;;;;;;;5044366;28;19913;-84
2022/05/31 12:24:43;;;;;;;;;;;;;;;;;;5038378;28;19959;-84
2022/05/31 12:27:10;;;;;;;;;;;;;;;;;;5036107;28;19929;-82
2022/05/31 12:29:36;;;;;;;;;;;;;;;;;;5035399;28;19924;-82
2022/05/31 12:32:02;;;;;;;;;;;;;;;;;;5038301;28;19926;-82
2022/05/31 12:34:28;;;;;;;;;;;;;;;;;;5038209;28;20316;-83
2022/05/31 12:36:54;;;;;;;;;;;;;;;;;;5039123;28;19915;-82
2022/05/31 12:39:20;;;;;;;;;;;;;;;;;;5036115;28;19916;-82
2022/05/31 12:41:46;;;;;;;;;;;;;;;;;;5037523;28;19919;-82
2022/05/31 12:44:12;;;;;;;;;;;;;;;;;;5034950;28;19916;-82
2022/05/31 12:46:38;;;;;;;;;;;;;;;;;;5034895;28;19943;-82
2022/05/31 12:49:03;;;;;;;;;;;;;;;;;;5030250;28;19951;-81
2022/05/31 12:51:31;;;;;;;;;;;;;;;;;;5034520;28;20397;-81
2022/05/31 12:53:57;;;;;;;;;;;;;;;;;;5037815;28;20703;-81
2022/05/31 12:56:23;;;;;;;;;;;;;;;;;;5036587;28;19913;-81
2022/05/31 12:58:49;;;;;;;;;;;;;;;;;;5035186;28;19924;-81
2022/05/31 13:01:15;;;;;;;;;;;;;;;;;;5036782;28;20393;-82
2022/05/31 13:03:41;;;;;;;;;;;;;;;;;;5040328;28;19960;-81
2022/05/31 13:06:07;;;;;;;;;;;;;;;;;;5036630;28;20021;-82
2022/05/31 13:08:33;;;;;;;;;;;;;;;;;;5046742;28;19913;-82
2022/05/31 13:21:58;;;;;;;;;;;;;;;;;;5028605;28;20046;-81
2022/05/31 13:24:24;;;;;;;;;;;;;;;;;;5034335;28;19958;-81
2022/05/31 13:26:51;;;;;;;;;;;;;;;;;;5034925;28;19921;-81
2022/05/31 13:29:18;;;;;;;;;;;;;;;;;;5035377;28;19920;-81
2022/05/31 13:31:44;;;;;;;;;;;;;;;;;;5033018;28;19913;-81
2022/05/31 13:34:10;;;;;;;;;;;;;;;;;;5038159;28;19924;-81
2022/05/31 13:36:36;;;;;;;;;;;;;;;;;;5023054;28;19913;-81
2022/05/31 13:39:02;;;;;;;;;;;;;;;;;;5029696;28;19916;-81
2022/05/31 13:41:28;;;;;;;;;;;;;;;;;;5037882;28;20397;-84
2022/05/31 13:43:54;;;;;;;;;;;;;;;;;;5037486;28;19948;-83
2022/05/31 13:46:20;;;;;;;;;;;;;;;;;;5031806;28;19971;-82
2022/05/31 13:48:46;;;;;;;;;;;;;;;;;;5029714;28;20416;-83
2022/05/31 13:51:12;;;;;;;;;;;;;;;;;;5033662;28;19939;-82
2022/05/31 13:53:38;;;;;;;;;;;;;;;;;;5038707;28;20381;-82
2022/05/31 13:56:04;;;;;;;;;;;;;;;;;;5036194;28;20374;-83
2022/05/31 13:58:30;;;;;;;;;;;;;;;;;;5033928;28;19920;-82
2022/05/31 14:00:56;;;;;;;;;;;;;;;;;;5040318;28;19995;-82
2022/05/31 14:03:22;;;;;;;;;;;;;;;;;;5035606;28;19919;-83
2022/05/31 14:05:48;;;;;;;;;;;;;;;;;;5038781;28;19927;-82
2022/05/31 14:08:14;;;;;;;;;;;;;;;;;;5033241;28;19923;-83
2022/05/31 14:10:40;;;;;;;;;;;;;;;;;;5039231;28;19940;-82
2022/05/31 14:13:09;;;;;;;;;;;;;;;;;;5036347;28;20020;-83
2022/05/31 14:15:35;;;;;;;;;;;;;;;;;;5028384;28;19913;-83
2022/05/31 14:18:01;;;;;;;;;;;;;;;;;;5034913;28;20747;-82
2022/05/31 14:20:30;;;;;;;;;;;;;;;;;;5035038;28;19912;-83
2022/05/31 14:22:56;;;;;;;;;;;;;;;;;;5028140;28;19967;-83
2022/05/31 14:25:24;;;;;;;;;;;;;;;;;;5035162;28;19917;-83
2022/05/31 14:27:50;;;;;;;;;;;;;;;;;;5026031;28;19920;-82
2022/05/31 14:30:16;;;;;;;;;;;;;;;;;;5033587;28;19923;-82
2022/05/31 14:32:42;;;;;;;;;;;;;;;;;;5032602;28;19913;-81
2022/05/31 14:35:07;;;;;;;;;;;;;;;;;;5034426;28;19966;-81
2022/05/31 14:37:35;;;;;;;;;;;;;;;;;;5034559;28;20337;-81
2022/05/31 14:40:03;;;;;;;;;;;;;;;;;;5038438;28;19963;-82
2022/05/31 14:42:29;;;;;;;;;;;;;;;;;;5036964;28;20465;-84
2022/05/31 14:44:55;;;;;;;;;;;;;;;;;;5038635;28;19919;-81
2022/05/31 14:47:21;;;;;;;;;;;;;;;;;;5042026;28;19921;-83
2022/05/31 14:49:47;;;;;;;;;;;;;;;;;;5037823;28;19923;-84
2022/05/31 14:52:13;;;;;;;;;;;;;;;;;;5040803;28;20334;-84
2022/05/31 14:54:39;;;;;;;;;;;;;;;;;;5038963;28;19925;-84
2022/05/31 14:57:05;;;;;;;;;;;;;;;;;;5035539;28;19913;-84
2022/05/31 14:59:31;;;;;;;;;;;;;;;;;;5038023;28;20297;-84
2022/05/31 15:01:57;;;;;;;;;;;;;;;;;;5039319;28;20286;-84
2022/05/31 15:04:28;;;;;;;;;;;;;;;;;;5038396;28;19924;-84
2022/05/31 15:06:54;;;;;;;;;;;;;;;;;;5040364;28;19923;-84
2022/05/31 15:09:21;;;;;;;;;;;;;;;;;;5035047;28;20211;-84
2022/05/31 15:20:02;;;;;;;;;;;;;;;;;;5036677;28;20482;-82
2022/05/31 15:22:28;;;;;;;;;;;;;;;;;;5038293;28;19909;-84
2022/05/31 15:24:53;;;;;;;;;;;;;;;;;;5041930;28;19969;-84
2022/05/31 15:27:19;;;;;;;;;;;;;;;;;;5035470;28;19921;-86
2022/05/31 15:29:45;;;;;;;;;;;;;;;;;;5039000;28;20011;-87
2022/05/31 15:32:11;;;;;;;;;;;;;;;;;;5041062;28;19916;-88
2022/05/31 15:34:37;;;;;;;;;;;;;;;;;;5035825;28;19920;-87
2022/05/31 15:37:03;;;;;;;;;;;;;;;;;;5055246;28;19917;-85
2022/05/31 15:39:29;;;;;;;;;;;;;;;;;;5041917;28;20373;-85
2022/05/31 15:41:55;;;;;;;;;;;;;;;;;;5038616;28;20370;-85
2022/05/31 15:44:21;;;;;;;;;;;;;;;;;;5034146;28;20476;-86
2022/05/31 15:46:47;;;;;;;;;;;;;;;;;;5034276;28;19920;-85
2022/05/31 15:49:13;;;;;;;;;;;;;;;;;;5030486;28;19913;-85
2022/05/31 15:51:39;;;;;;;;;;;;;;;;;;5031802;28;20561;-85
2022/05/31 15:54:05;;;;;;;;;;;;;;;;;;5034527;28;20031;-85
2022/05/31 15:56:31;;;;;;;;;;;;;;;;;;5036834;28;20441;-85
2022/05/31 15:58:57;;;;;;;;;;;;;;;;;;5035241;28;19920;-84
2022/05/31 16:01:23;;;;;;;;;;;;;;;;;;5034102;28;19920;-85
2022/05/31 16:03:49;;;;;;;;;;;;;;;;;;5032447;28;19920;-83
2022/05/31 16:06:15;;;;;;;;;;;;;;;;;;5029187;28;20548;-83
2022/05/31 16:08:41;;;;;;;;;;;;;;;;;;5029311;28;19913;-84
2022/05/31 16:11:07;;;;;;;;;;;;;;;;;;5027953;28;19919;-83
2022/05/31 16:13:32;;;;;;;;;;;;;;;;;;5026318;28;19923;-83
2022/05/31 16:15:58;;;;;;;;;;;;;;;;;;5058212;28;20301;-83
2022/05/31 16:18:24;;;;;;;;;;;;;;;;;;5023963;28;19924;-84
2022/05/31 16:20:50;;;;;;;;;;;;;;;;;;5029879;28;20226;-82
2022/05/31 16:23:17;;;;;;;;;;;;;;;;;;5059805;28;19913;-84
2022/05/31 16:25:43;;;;;;;;;;;;;;;;;;5059101;28;19939;-83
2022/05/31 16:28:09;;;;;;;;;;;;;;;;;;5030000;28;19924;-84
2022/05/31 16:30:49;;;;;;;;;;;;;;;;;;5032268;28;20266;-83
2022/05/31 16:33:16;;;;;;;;;;;;;;;;;;5025774;28;19924;-84
2022/05/31 16:35:42;;;;;;;;;;;;;;;;;;5060301;28;19952;-83
2022/05/31 16:41:13;;;;;;;;;;;;;;;;;;5026820;28;19923;-83
2022/05/31 16:43:39;;;;;;;;;;;;;;;;;;5059905;28;19913;-83
2022/05/31 16:46:05;;;;;;;;;;;;;;;;;;5025052;28;19913;-83
2022/05/31 16:48:31;;;;;;;;;;;;;;;;;;5028745;28;19919;-83
2022/05/31 16:50:57;;;;;;;;;;;;;;;;;;5027625;28;19913;-85
2022/05/31 16:53:23;;;;;;;;;;;;;;;;;;5042422;28;19966;-84
2022/05/31 16:55:49;;;;;;;;;;;;;;;;;;5055380;28;20034;-85
2022/05/31 16:58:15;;;;;;;;;;;;;;;;;;5062240;28;20355;-84
2022/05/31 17:00:41;;;;;;;;;;;;;;;;;;5028839;28;19912;-84
2022/05/31 17:03:07;;;;;;;;;;;;;;;;;;5060051;28;19909;-84
2022/05/31 17:05:33;;;;;;;;;;;;;;;;;;5028608;28;20002;-86
2022/05/31 17:16:13;;;;;;;;;;;;;;;;;;5027925;28;19939;-85
2022/05/31 17:18:39;;;;;;;;;;;;;;;;;;5057440;28;20385;-85
2022/05/31 17:21:04;;;;;;;;;;;;;;;;;;5025082;28;19913;-84
2022/05/31 17:23:31;;;;;;;;;;;;;;;;;;5031740;28;19943;-85
2022/05/31 17:25:57;;;;;;;;;;;;;;;;;;5026110;28;19952;-85
2022/05/31 17:28:23;;;;;;;;;;;;;;;;;;5027242;28;19925;-84
2022/05/31 17:30:49;;;;;;;;;;;;;;;;;;5028532;28;19940;-84